Time;durP1;ratioP1;P1;durP2;ratioP2;P2;SDS_P1;SDS_P2;PMS_P1;PMS_P2;Temp;Humidity;BMP_temperature;BMP_pressure;BME280_temperature;BME280_humidity;BME280_pressure;Samples;Min_cycle;Max_cycle;Signal;HPM_P1;HPM_P2
2023/07/20 00:01:26;;;;;;;4.25;1.50;;;13.90;99.90;;;;;;5051945;28;20048;-73
2023/07/20 00:03:54;;;;;;;4.53;1.33;;;13.90;99.90;;;;;;5051099;28;20053;-73
2023/07/20 00:06:27;;;;;;;3.47;1.45;;;13.80;99.90;;;;;;5052532;28;20060;-74
2023/07/20 00:08:56;;;;;;;4.35;1.50;;;13.70;99.90;;;;;;5050205;28;20374;-74
2023/07/20 00:11:26;;;;;;;3.40;1.55;;;13.70;99.90;;;;;;5051880;28;20436;-73
2023/07/20 00:13:52;;;;;;;2.83;1.30;;;13.60;99.90;;;;;;5050977;28;20057;-74
2023/07/20 00:16:17;;;;;;;3.72;1.40;;;13.60;99.90;;;;;;5051116;28;20177;-74
2023/07/20 00:18:43;;;;;;;2.40;1.30;;;13.50;99.90;;;;;;5045713;28;20473;-74
2023/07/20 00:21:09;;;;;;;2.85;1.35;;;13.50;99.90;;;;;;5051721;28;20041;-74
2023/07/20 00:23:35;;;;;;;2.20;1.30;;;13.40;99.90;;;;;;5050317;28;20052;-74
2023/07/20 00:26:01;;;;;;;4.28;1.73;;;13.40;99.90;;;;;;5051646;28;20053;-74
2023/07/20 00:28:27;;;;;;;2.67;1.50;;;13.30;99.90;;;;;;5052489;28;20052;-74
2023/07/20 00:30:52;;;;;;;2.13;1.27;;;13.30;99.90;;;;;;5051557;28;20033;-73
2023/07/20 00:33:18;;;;;;;3.65;1.50;;;13.20;99.90;;;;;;5030865;28;20455;-74
2023/07/20 00:35:46;;;;;;;3.38;1.70;;;13.20;99.90;;;;;;5030460;28;20064;-73
2023/07/20 00:38:12;;;;;;;2.65;1.60;;;13.20;99.90;;;;;;5031354;28;20049;-73
2023/07/20 00:40:39;;;;;;;4.55;1.70;;;13.10;99.90;;;;;;5030930;28;20037;-73
2023/07/20 00:43:04;;;;;;;3.60;1.60;;;13.10;99.90;;;;;;5031211;28;20467;-73
2023/07/20 00:45:32;;;;;;;2.72;1.85;;;13.10;99.90;;;;;;5051283;28;20132;-73
2023/07/20 00:47:59;;;;;;;2.90;1.50;;;13.00;99.90;;;;;;5050890;28;20049;-73
2023/07/20 00:50:26;;;;;;;2.63;1.67;;;13.00;99.90;;;;;;5052045;28;20076;-73
2023/07/20 00:52:52;;;;;;;2.70;1.67;;;13.00;99.90;;;;;;5051074;28;20110;-73
2023/07/20 00:55:19;;;;;;;2.45;1.50;;;13.00;99.90;;;;;;5043798;28;20473;-73
2023/07/20 00:57:48;;;;;;;3.92;1.70;;;13.00;99.90;;;;;;5049857;28;20492;-73
2023/07/20 01:00:27;;;;;;;2.35;1.52;;;12.90;99.90;;;;;;5044902;28;20049;-73
2023/07/20 01:02:53;;;;;;;2.63;1.50;;;13.80;99.90;;;;;;5043340;28;20064;-73
2023/07/20 01:05:20;;;;;;;3.58;1.90;;;12.90;99.90;;;;;;5038327;28;20041;-73
2023/07/20 01:08:07;;;;;;;4.47;2.55;;;12.90;99.90;;;;;;5045938;28;20056;-73
2023/07/20 01:10:41;;;;;;;3.47;1.70;;;12.90;99.90;;;;;;5037261;28;20071;-74
2023/07/20 01:13:10;;;;;;;4.35;1.70;;;12.90;99.90;;;;;;5045102;28;20148;-73
2023/07/20 01:15:35;;;;;;;4.07;1.70;;;12.80;99.90;;;;;;5046637;28;20041;-73
2023/07/20 01:18:01;;;;;;;2.80;1.70;;;12.80;99.90;;;;;;5053914;28;20051;-73
2023/07/20 01:20:28;;;;;;;4.05;2.17;;;12.70;99.90;;;;;;5054514;28;20116;-74
2023/07/20 01:23:15;;;;;;;3.25;2.10;;;12.70;99.90;;;;;;5054856;28;20545;-74
2023/07/20 01:26:02;;;;;;;4.82;2.00;;;12.70;99.90;;;;;;5053444;28;20056;-74
2023/07/20 01:28:49;;;;;;;4.32;1.90;;;12.60;99.90;;;;;;5054720;28;20041;-74
2023/07/20 01:31:22;;;;;;;3.20;1.80;;;12.60;99.90;;;;;;5054857;28;20469;-74
2023/07/20 01:33:50;;;;;;;3.92;1.90;;;12.60;99.90;;;;;;5054719;28;20112;-74
2023/07/20 01:36:18;;;;;;;3.20;1.83;;;12.60;99.90;;;;;;5054250;28;20055;-73
2023/07/20 01:38:45;;;;;;;3.55;1.60;;;12.50;99.90;;;;;;5053511;28;20094;-73
2023/07/20 01:41:11;;;;;;;3.22;1.88;;;12.50;99.90;;;;;;5053409;28;20045;-74
2023/07/20 01:43:37;;;;;;;3.22;1.85;;;12.50;99.90;;;;;;5053815;28;20489;-73
2023/07/20 01:46:03;;;;;;;3.67;2.10;;;12.40;99.90;;;;;;5053144;28;20040;-73
2023/07/20 01:48:28;;;;;;;3.78;2.20;;;12.40;99.90;;;;;;5054026;28;20827;-73
2023/07/20 01:50:57;;;;;;;2.55;1.60;;;12.40;99.90;;;;;;5053485;28;20128;-74
2023/07/20 01:53:23;;;;;;;3.88;1.75;;;12.30;99.90;;;;;;5054788;28;20484;-74
2023/07/20 01:55:49;;;;;;;4.38;1.92;;;12.30;99.90;;;;;;5054356;28;20040;-73
2023/07/20 01:58:15;;;;;;;4.00;1.77;;;12.30;99.90;;;;;;5054885;28;20077;-73
2023/07/20 02:00:41;;;;;;;4.43;1.92;;;12.20;99.90;;;;;;5053009;28;20452;-73
2023/07/20 02:03:07;;;;;;;3.63;1.60;;;12.10;99.90;;;;;;5048641;28;20046;-73
2023/07/20 02:05:32;;;;;;;2.83;1.88;;;12.10;99.90;;;;;;5048005;28;20045;-74
2023/07/20 02:07:58;;;;;;;2.88;1.70;;;12.10;99.90;;;;;;5042309;28;20052;-74
2023/07/20 02:10:24;;;;;;;3.70;1.67;;;12.10;99.90;;;;;;5043208;28;20504;-74
2023/07/20 02:12:49;;;;;;;3.78;1.70;;;12.00;99.90;;;;;;5047670;28;20060;-73
2023/07/20 02:15:20;;;;;;;4.60;1.80;;;12.00;99.90;;;;;;5042060;28;20049;-73
2023/07/20 02:17:46;;;;;;;2.40;1.58;;;12.00;99.90;;;;;;5052986;28;20045;-74
2023/07/20 02:20:12;;;;;;;3.20;1.63;;;11.90;99.90;;;;;;5052791;28;20442;-74
2023/07/20 02:22:39;;;;;;;3.50;1.58;;;11.90;99.90;;;;;;5046501;28;20150;-74
2023/07/20 02:25:06;;;;;;;3.72;1.80;;;11.90;99.90;;;;;;5040249;28;20488;-73
2023/07/20 02:27:33;;;;;;;5.00;1.90;;;11.90;99.90;;;;;;5033068;28;20049;-73
2023/07/20 02:29:58;;;;;;;3.85;1.80;;;11.90;99.90;;;;;;5040733;28;20497;-73
2023/07/20 02:32:24;;;;;;;4.57;1.75;;;11.90;99.90;;;;;;5054756;28;20048;-73
2023/07/20 02:34:50;;;;;;;4.75;1.77;;;11.90;99.90;;;;;;5053103;28;20048;-74
2023/07/20 02:37:16;;;;;;;5.78;1.67;;;11.90;99.90;;;;;;5052794;28;20496;-74
2023/07/20 02:39:45;;;;;;;3.42;1.80;;;11.90;99.90;;;;;;5052719;28;20048;-74
2023/07/20 02:42:11;;;;;;;4.15;1.70;;;11.90;99.90;;;;;;5052704;28;20037;-74
2023/07/20 02:44:36;;;;;;;3.10;1.63;;;11.90;99.90;;;;;;5052382;28;20439;-74
2023/07/20 02:47:02;;;;;;;3.72;1.70;;;11.90;99.90;;;;;;5052718;28;20083;-73
2023/07/20 02:49:28;;;;;;;2.83;1.70;;;11.90;99.90;;;;;;5052718;28;20443;-74
2023/07/20 02:51:54;;;;;;;2.35;1.52;;;11.90;99.90;;;;;;5053498;28;20488;-74
2023/07/20 02:54:21;;;;;;;2.33;1.52;;;11.90;99.90;;;;;;5052809;28;20045;-74
2023/07/20 02:56:47;;;;;;;2.88;1.75;;;11.90;99.90;;;;;;5051957;28;20055;-74
2023/07/20 02:59:13;;;;;;;2.47;1.50;;;11.90;99.90;;;;;;5052466;28;20044;-74
2023/07/20 03:01:38;;;;;;;2.50;1.40;;;11.80;99.90;;;;;;5052081;28;20503;-74
2023/07/20 03:04:04;;;;;;;3.72;1.60;;;11.80;99.90;;;;;;5048511;28;20123;-73
2023/07/20 03:06:30;;;;;;;3.42;1.80;;;11.80;99.90;;;;;;5051195;28;20036;-73
2023/07/20 03:08:56;;;;;;;4.55;1.70;;;11.70;99.90;;;;;;5051875;28;20045;-73
2023/07/20 03:11:22;;;;;;;2.25;1.40;;;11.80;99.90;;;;;;5045501;28;20061;-73
2023/07/20 03:13:48;;;;;;;4.95;1.90;;;11.80;99.90;;;;;;5053081;28;20048;-73
2023/07/20 03:16:17;;;;;;;2.60;1.60;;;11.80;99.90;;;;;;5052054;28;20048;-73
2023/07/20 03:18:46;;;;;;;5.32;1.77;;;11.80;99.90;;;;;;5051844;28;20048;-73
2023/07/20 03:21:12;;;;;;;3.45;1.70;;;11.80;99.90;;;;;;5053287;28;20041;-73
2023/07/20 03:23:39;;;;;;;3.13;1.50;;;11.80;99.90;;;;;;5050633;28;20504;-73
2023/07/20 03:26:04;;;;;;;3.00;1.70;;;11.80;99.90;;;;;;5052350;28;20087;-73
2023/07/20 03:28:30;;;;;;;3.35;1.80;;;11.80;99.90;;;;;;5051834;28;20321;-73
2023/07/20 03:30:56;;;;;;;3.90;1.90;;;11.80;99.90;;;;;;5051033;28;20048;-73
2023/07/20 03:33:27;;;;;;;3.00;1.70;;;11.90;99.90;;;;;;5049996;28;20503;-73
2023/07/20 03:35:53;;;;;;;3.38;1.50;;;11.90;99.90;;;;;;5052307;28;20476;-73
2023/07/20 03:38:20;;;;;;;3.13;1.75;;;12.00;99.90;;;;;;5045725;28;20505;-73
2023/07/20 03:40:57;;;;;;;2.75;1.55;;;12.00;99.90;;;;;;5031025;28;20130;-73
2023/07/20 03:43:24;;;;;;;4.13;1.70;;;12.10;99.90;;;;;;5045630;28;20480;-73
2023/07/20 03:45:51;;;;;;;3.05;1.70;;;12.10;99.90;;;;;;5050889;28;20079;-73
2023/07/20 03:48:18;;;;;;;3.65;1.80;;;12.10;99.90;;;;;;5051495;28;20041;-73
2023/07/20 03:50:45;;;;;;;4.82;1.65;;;12.10;99.90;;;;;;5052566;28;20033;-73
2023/07/20 03:53:11;;;;;;;4.15;1.90;;;12.00;99.90;;;;;;5051997;28;20053;-73
2023/07/20 03:55:37;;;;;;;2.97;1.70;;;12.00;99.90;;;;;;5041998;28;20076;-73
2023/07/20 03:58:06;;;;;;;4.65;1.67;;;12.00;99.90;;;;;;5042492;28;20443;-73
2023/07/20 04:00:32;;;;;;;5.30;1.85;;;12.00;99.90;;;;;;5039976;28;20180;-73
2023/07/20 04:02:58;;;;;;;3.55;1.67;;;12.00;99.90;;;;;;5052201;28;20124;-73
2023/07/20 04:05:25;;;;;;;2.80;1.73;;;12.00;99.90;;;;;;5052694;28;20051;-73
2023/07/20 04:07:51;;;;;;;3.10;1.83;;;11.90;99.90;;;;;;5051907;28;20053;-74
2023/07/20 04:10:18;;;;;;;4.70;1.63;;;11.90;99.90;;;;;;5035492;28;20045;-74
2023/07/20 04:12:45;;;;;;;3.25;1.63;;;11.90;99.90;;;;;;5035943;28;20052;-74
2023/07/20 04:15:10;;;;;;;3.55;1.73;;;11.90;99.90;;;;;;5050638;28;20136;-73
2023/07/20 04:17:39;;;;;;;3.60;1.73;;;11.90;99.90;;;;;;5052248;28;20120;-74
2023/07/20 04:20:06;;;;;;;2.97;1.80;;;12.00;99.90;;;;;;5051155;28;20055;-73
2023/07/20 04:22:32;;;;;;;5.85;2.00;;;12.00;99.90;;;;;;5050174;28;20079;-74
2023/07/20 04:24:57;;;;;;;4.30;1.95;;;12.00;99.90;;;;;;5051183;28;20131;-74
2023/07/20 04:27:23;;;;;;;3.60;1.90;;;11.90;99.90;;;;;;5051224;28;20140;-74
2023/07/20 04:29:49;;;;;;;4.00;2.10;;;12.00;99.90;;;;;;5050358;28;20048;-73
2023/07/20 04:32:14;;;;;;;4.05;2.03;;;12.00;99.90;;;;;;5050330;28;20051;-74
2023/07/20 04:34:40;;;;;;;3.30;1.88;;;12.00;99.90;;;;;;5050819;28;20044;-74
2023/07/20 04:37:06;;;;;;;4.50;2.00;;;12.00;99.90;;;;;;5050211;28;20045;-73
2023/07/20 04:39:31;;;;;;;3.85;2.22;;;12.00;99.90;;;;;;5050622;28;20110;-73
2023/07/20 04:41:58;;;;;;;4.15;2.30;;;12.10;99.90;;;;;;5050625;28;20048;-73
2023/07/20 04:44:24;;;;;;;4.25;2.22;;;12.10;99.90;;;;;;5051030;28;20056;-73
2023/07/20 04:46:50;;;;;;;4.15;1.88;;;12.20;99.90;;;;;;5056155;28;20484;-73
2023/07/20 04:49:15;;;;;;;4.65;2.10;;;12.20;99.90;;;;;;5054554;28;20068;-74
2023/07/20 04:51:41;;;;;;;3.58;2.00;;;12.30;99.90;;;;;;5055954;28;20045;-74
2023/07/20 04:54:07;;;;;;;4.97;1.90;;;12.30;99.90;;;;;;5054873;28;20126;-74
2023/07/20 04:56:33;;;;;;;3.47;1.88;;;12.40;99.90;;;;;;5053971;28;20064;-74
2023/07/20 04:59:05;;;;;;;5.40;1.92;;;12.40;99.90;;;;;;5054715;28;20102;-73
2023/07/20 05:01:30;;;;;;;4.90;2.00;;;12.60;99.90;;;;;;5049883;28;20116;-74
2023/07/20 05:03:56;;;;;;;6.65;2.10;;;12.60;99.90;;;;;;5055210;28;20483;-74
2023/07/20 05:06:22;;;;;;;4.80;1.75;;;12.80;99.90;;;;;;5047674;28;20425;-74
2023/07/20 05:08:50;;;;;;;6.35;2.10;;;12.80;99.90;;;;;;5054156;28;20045;-74
2023/07/20 05:11:16;;;;;;;3.15;1.75;;;12.90;99.90;;;;;;5049450;28;20572;-74
2023/07/20 05:13:41;;;;;;;3.88;1.50;;;13.00;99.90;;;;;;5052047;28;20067;-74
2023/07/20 05:16:10;;;;;;;3.83;1.90;;;13.10;99.90;;;;;;5048952;28;20033;-74
2023/07/20 05:18:36;;;;;;;4.30;1.60;;;13.20;99.90;;;;;;5054730;28;20049;-74
2023/07/20 05:21:02;;;;;;;5.90;1.83;;;13.40;99.90;;;;;;5054291;28;20131;-74
2023/07/20 05:23:27;;;;;;;5.47;1.60;;;13.60;99.90;;;;;;5055452;28;20059;-74
2023/07/20 05:25:57;;;;;;;3.45;1.80;;;13.80;99.90;;;;;;5053626;28;20037;-74
2023/07/20 05:28:23;;;;;;;4.22;1.73;;;13.90;99.90;;;;;;5053797;28;20385;-74
2023/07/20 05:30:51;;;;;;;3.95;1.70;;;14.10;99.90;;;;;;5054328;28;20607;-74
2023/07/20 05:33:20;;;;;;;7.88;1.90;;;14.10;99.90;;;;;;5048738;28;20037;-75
2023/07/20 05:35:49;;;;;;;3.10;1.75;;;14.20;99.90;;;;;;5049512;28;20045;-75
2023/07/20 05:38:15;;;;;;;5.57;1.70;;;14.30;99.90;;;;;;5048301;28;20049;-74
2023/07/20 05:40:42;;;;;;;6.20;1.70;;;14.30;99.90;;;;;;5052688;28;20059;-74
2023/07/20 05:43:08;;;;;;;3.15;1.38;;;14.40;99.90;;;;;;5053541;28;20416;-74
2023/07/20 05:45:34;;;;;;;5.03;1.30;;;14.40;99.90;;;;;;5053062;28;20052;-74
2023/07/20 05:47:59;;;;;;;6.03;1.40;;;14.50;99.90;;;;;;5054824;28;20052;-73
2023/07/20 05:50:25;;;;;;;6.97;1.45;;;14.50;99.90;;;;;;5053949;28;20045;-74
2023/07/20 05:52:54;;;;;;;3.85;1.55;;;14.50;99.90;;;;;;5054505;28;20087;-75
2023/07/20 05:55:20;;;;;;;5.20;1.77;;;14.60;99.90;;;;;;5054817;28;20049;-75
2023/07/20 05:57:47;;;;;;;2.33;1.10;;;14.60;99.90;;;;;;5054641;28;20045;-75
2023/07/20 06:00:26;;;;;;;3.15;1.27;;;14.60;99.90;;;;;;5053747;28;20037;-74
2023/07/20 06:02:53;;;;;;;5.03;1.30;;;14.70;99.90;;;;;;5053736;28;20409;-73
2023/07/20 06:05:20;;;;;;;4.20;1.25;;;14.70;99.90;;;;;;5054794;28;20120;-74
2023/07/20 06:07:46;;;;;;;4.50;1.40;;;14.80;99.90;;;;;;5052994;28;20048;-74
2023/07/20 06:10:12;;;;;;;6.18;1.23;;;14.80;99.90;;;;;;5054601;28;20049;-73
2023/07/20 06:12:38;;;;;;;3.28;1.10;;;14.80;99.90;;;;;;5053563;28;20060;-74
2023/07/20 06:15:06;;;;;;;2.88;1.10;;;14.90;99.90;;;;;;5052643;28;20049;-75
2023/07/20 06:17:32;;;;;;;2.38;1.13;;;14.90;99.90;;;;;;5053966;28;20122;-75
2023/07/20 06:19:58;;;;;;;2.80;1.27;;;14.90;99.90;;;;;;5052574;28;20041;-74
2023/07/20 06:22:24;;;;;;;2.55;1.10;;;15.00;99.90;;;;;;5050491;28;20048;-75
2023/07/20 06:24:50;;;;;;;2.70;1.42;;;15.10;99.90;;;;;;5041562;28;20564;-76
2023/07/20 06:27:16;;;;;;;2.97;1.40;;;15.10;99.90;;;;;;5032945;28;20049;-76
2023/07/20 06:29:42;;;;;;;3.47;1.60;;;15.20;99.90;;;;;;5041038;28;20511;-72
2023/07/20 06:32:08;;;;;;;5.93;1.80;;;15.30;99.90;;;;;;5052559;28;20128;-74
2023/07/20 06:34:36;;;;;;;4.05;1.70;;;15.40;99.90;;;;;;5053232;28;20086;-73
2023/07/20 06:37:03;;;;;;;6.00;2.00;;;15.50;99.90;;;;;;5052222;28;20049;-74
2023/07/20 06:39:29;;;;;;;4.80;1.70;;;15.60;99.90;;;;;;5045846;28;20057;-74
2023/07/20 06:41:55;;;;;;;4.35;1.88;;;15.70;99.90;;;;;;5051781;28;20041;-75
2023/07/20 06:44:22;;;;;;;5.45;1.98;;;15.90;99.90;;;;;;5052875;28;20119;-74
2023/07/20 06:46:47;;;;;;;4.78;1.60;;;15.90;99.90;;;;;;5051936;28;20055;-73
2023/07/20 06:49:25;;;;;;;3.97;1.85;;;16.00;99.90;;;;;;5052221;28;20127;-74
2023/07/20 06:51:52;;;;;;;4.35;1.60;;;16.10;99.90;;;;;;5050899;28;21094;-74
2023/07/20 06:54:17;;;;;;;4.55;2.00;;;16.10;99.90;;;;;;5031521;28;20485;-74
2023/07/20 06:56:43;;;;;;;4.95;1.70;;;16.10;99.90;;;;;;5031759;28;20053;-74
2023/07/20 06:59:09;;;;;;;4.28;1.70;;;16.20;99.90;;;;;;5048780;28;20040;-74
2023/07/20 07:01:35;;;;;;;4.47;1.70;;;16.10;99.90;;;;;;5051114;28;20040;-75
2023/07/20 07:04:00;;;;;;;5.60;2.05;;;16.20;99.90;;;;;;5049416;28;20134;-74
2023/07/20 07:06:27;;;;;;;5.80;2.15;;;16.20;99.90;;;;;;5053815;28;20040;-75
2023/07/20 07:08:53;;;;;;;5.30;1.98;;;16.20;99.90;;;;;;5050364;28;20122;-74
2023/07/20 07:11:20;;;;;;;5.50;2.42;;;16.30;99.90;;;;;;5051256;28;20504;-74
2023/07/20 07:13:46;;;;;;;5.55;1.95;;;16.40;99.90;;;;;;5052718;28;20056;-74
2023/07/20 07:16:14;;;;;;;3.58;1.77;;;16.50;99.90;;;;;;5052007;28;20048;-74
2023/07/20 07:18:40;;;;;;;6.38;2.10;;;16.60;99.90;;;;;;5050945;28;20053;-74
2023/07/20 07:21:06;;;;;;;5.45;2.45;;;16.60;99.90;;;;;;5051592;28;20437;-75
2023/07/20 07:23:31;;;;;;;3.78;2.00;;;16.80;99.90;;;;;;5051318;28;20067;-74
2023/07/20 07:25:57;;;;;;;5.90;2.25;;;17.00;99.90;;;;;;5047067;28;20033;-75
2023/07/20 07:28:23;;;;;;;5.00;2.35;;;17.30;99.90;;;;;;5047109;28;20124;-71
2023/07/20 07:30:48;;;;;;;6.32;1.95;;;17.40;99.90;;;;;;5037998;28;20120;-77
2023/07/20 07:33:23;;;;;;;7.57;2.33;;;17.30;99.90;;;;;;5031732;28;20060;-74
2023/07/20 07:35:50;;;;;;;6.28;2.00;;;17.20;99.90;;;;;;5031394;28;20046;-75
2023/07/20 07:38:20;;;;;;;5.38;2.20;;;17.10;99.90;;;;;;5031293;28;20135;-75
2023/07/20 07:40:46;;;;;;;4.53;2.20;;;17.60;99.90;;;;;;5044038;28;20048;-75
2023/07/20 07:43:13;;;;;;;5.45;1.80;;;18.70;99.90;;;;;;5051292;28;20044;-75
2023/07/20 07:45:40;;;;;;;5.22;2.25;;;20.00;99.90;;;;;;5051107;28;20048;-74
2023/07/20 07:48:06;;;;;;;3.90;1.83;;;21.30;99.90;;;;;;5053262;28;20048;-74
2023/07/20 07:50:32;;;;;;;4.03;1.80;;;22.30;99.90;;;;;;5050903;28;20044;-80
2023/07/20 07:52:59;;;;;;;5.80;1.90;;;23.00;99.90;;;;;;5051319;28;20048;-79
2023/07/20 07:55:26;;;;;;;3.70;1.65;;;22.60;99.30;;;;;;5053083;28;20044;-79
2023/07/20 07:57:52;;;;;;;6.60;1.60;;;22.20;99.10;;;;;;5045749;28;20045;-77
2023/07/20 08:00:18;;;;;;;4.63;1.92;;;21.50;99.50;;;;;;5031103;28;20041;-75
2023/07/20 08:02:46;;;;;;;5.20;1.90;;;21.70;99.90;;;;;;5041591;28;20086;-75
2023/07/20 08:05:12;;;;;;;4.03;1.60;;;22.50;99.20;;;;;;5050829;28;20053;-79
2023/07/20 08:07:38;;;;;;;4.82;1.90;;;22.90;98.10;;;;;;5042931;28;20037;-80
2023/07/20 08:10:05;;;;;;;3.97;1.60;;;22.80;98.10;;;;;;5049988;28;20151;-84
2023/07/20 08:12:31;;;;;;;4.03;1.90;;;22.40;97.30;;;;;;5047463;28;20060;-81
2023/07/20 08:14:57;;;;;;;4.13;1.58;;;22.20;98.50;;;;;;5051167;28;20041;-80
2023/07/20 08:17:23;;;;;;;5.32;1.60;;;21.60;98.50;;;;;;5050625;28;20056;-81
2023/07/20 08:19:49;;;;;;;3.58;1.30;;;21.50;99.40;;;;;;5050349;28;20049;-79
2023/07/20 08:22:15;;;;;;;4.53;1.38;;;21.70;98.90;;;;;;5052319;28;20069;-75
2023/07/20 08:24:42;;;;;;;3.78;1.30;;;22.30;98.40;;;;;;5041616;28;20455;-74
2023/07/20 08:27:08;;;;;;;3.08;1.50;;;23.20;96.70;;;;;;5051394;28;20037;-76
2023/07/20 08:29:34;;;;;;;3.28;1.30;;;24.10;94.90;;;;;;5051736;28;20145;-76
2023/07/20 08:32:04;;;;;;;3.85;1.20;;;24.40;95.10;;;;;;5052144;28;20040;-75
2023/07/20 08:34:30;;;;;;;4.88;1.80;;;25.20;93.50;;;;;;5050338;28;20103;-75
2023/07/20 08:36:56;;;;;;;4.35;1.58;;;25.50;92.80;;;;;;5051833;28;20037;-75
2023/07/20 08:39:22;;;;;;;4.97;1.50;;;25.80;93.30;;;;;;5052302;28;20080;-78
2023/07/20 08:41:49;;;;;;;4.93;1.50;;;25.50;92.80;;;;;;5050135;28;20053;-76
2023/07/20 08:44:15;;;;;;;5.60;1.40;;;24.40;93.10;;;;;;5048289;28;20551;-75
2023/07/20 08:46:42;;;;;;;3.78;1.45;;;23.50;94.00;;;;;;5042747;28;20033;-74
2023/07/20 08:49:09;;;;;;;6.07;1.63;;;22.90;95.00;;;;;;5045216;28;20037;-75
2023/07/20 08:51:39;;;;;;;4.57;1.50;;;22.90;95.60;;;;;;5050208;28;20059;-76
2023/07/20 08:54:05;;;;;;;4.35;1.52;;;23.80;96.20;;;;;;5050046;28;20040;-75
2023/07/20 08:56:33;;;;;;;3.47;1.27;;;24.60;94.40;;;;;;5049837;28;20095;-73
2023/07/20 08:59:00;;;;;;;3.58;1.10;;;25.50;93.70;;;;;;5049138;28;20076;-75
2023/07/20 09:01:28;;;;;;;3.67;1.35;;;26.10;92.60;;;;;;5049662;28;20392;-80
2023/07/20 09:03:53;;;;;;;4.75;1.20;;;26.50;91.20;;;;;;5051575;28;20088;-75
2023/07/20 09:06:19;;;;;;;3.45;1.65;;;26.80;91.50;;;;;;5050037;28;20068;-76
2023/07/20 09:08:45;;;;;;;3.70;1.40;;;27.10;90.50;;;;;;5050535;28;20128;-76
2023/07/20 09:11:13;;;;;;;5.63;1.60;;;26.70;90.40;;;;;;5050178;28;20049;-75
2023/07/20 09:13:42;;;;;;;2.53;1.17;;;26.10;91.20;;;;;;5037983;28;20443;-75
2023/07/20 09:16:08;;;;;;;3.25;1.10;;;25.20;91.40;;;;;;5045375;28;20041;-75
2023/07/20 09:18:34;;;;;;;2.92;1.30;;;24.80;92.00;;;;;;5047130;28;20083;-74
2023/07/20 09:21:08;;;;;;;3.67;1.10;;;25.10;91.90;;;;;;5045456;28;20098;-74
2023/07/20 09:23:41;;;;;;;3.72;1.23;;;25.60;91.20;;;;;;5038416;28;20461;-74
2023/07/20 09:26:16;;;;;;;4.30;1.15;;;25.80;91.30;;;;;;5043005;28;20159;-74
2023/07/20 09:28:50;;;;;;;5.68;1.40;;;25.70;91.60;;;;;;5037450;28;20049;-79
2023/07/20 09:31:20;;;;;;;3.47;1.40;;;25.50;91.30;;;;;;5040114;28;20041;-76
2023/07/20 09:33:47;;;;;;;3.05;1.20;;;26.00;91.40;;;;;;5036551;28;20481;-75
2023/07/20 09:36:13;;;;;;;3.75;1.40;;;26.20;90.80;;;;;;5046558;28;20045;-75
2023/07/20 09:38:45;;;;;;;3.35;1.30;;;25.90;91.30;;;;;;5052752;28;20107;-75
2023/07/20 09:41:15;;;;;;;3.78;1.17;;;25.80;91.30;;;;;;5053525;28;20044;-76
2023/07/20 09:43:42;;;;;;;4.07;1.17;;;26.00;91.70;;;;;;5055102;28;20053;-76
2023/07/20 09:46:08;;;;;;;5.05;1.50;;;26.40;91.60;;;;;;5054417;28;20048;-79
2023/07/20 09:48:34;;;;;;;2.95;1.40;;;26.80;90.80;;;;;;5054511;28;20036;-78
2023/07/20 09:51:00;;;;;;;4.63;1.40;;;27.80;90.50;;;;;;5042124;28;20474;-79
2023/07/20 09:53:27;;;;;;;4.45;1.40;;;28.30;90.60;;;;;;5032213;28;20056;-80
2023/07/20 09:55:54;;;;;;;2.85;1.30;;;27.90;87.60;;;;;;5033786;28;20038;-75
2023/07/20 09:58:23;;;;;;;3.05;1.08;;;27.00;88.40;;;;;;5035071;28;20060;-77
2023/07/20 10:00:53;;;;;;;3.30;1.30;;;26.60;89.20;;;;;;5055068;28;20487;-80
2023/07/20 10:03:21;;;;;;;4.45;1.58;;;26.20;90.10;;;;;;5053494;28;20052;-75
2023/07/20 10:05:59;;;;;;;3.22;1.40;;;25.70;90.70;;;;;;5054155;28;20041;-74
2023/07/20 10:08:26;;;;;;;7.85;1.52;;;25.40;90.80;;;;;;5053149;28;20049;-75
2023/07/20 10:10:52;;;;;;;5.03;1.42;;;25.80;91.40;;;;;;5052536;28;20041;-79
2023/07/20 10:13:30;;;;;;;2.70;1.20;;;26.30;91.40;;;;;;5054027;28;20052;-74
2023/07/20 10:16:01;;;;;;;3.45;1.45;;;27.30;90.70;;;;;;5053601;28;20657;-73
2023/07/20 10:18:55;;;;;;;5.32;1.70;;;28.10;90.00;;;;;;5052292;28;20182;-79
2023/07/20 10:21:24;;;;;;;3.63;1.45;;;27.70;88.40;;;;;;5054005;28;20098;-73
2023/07/20 10:23:50;;;;;;;3.05;1.30;;;26.90;89.60;;;;;;5037988;28;20095;-74
2023/07/20 10:26:16;;;;;;;4.15;1.50;;;27.00;89.00;;;;;;5033541;28;20128;-74
2023/07/20 10:28:45;;;;;;;4.82;1.75;;;27.20;88.70;;;;;;5035695;28;20041;-75
2023/07/20 10:31:13;;;;;;;3.70;1.60;;;27.20;88.80;;;;;;5039564;28;20095;-75
2023/07/20 10:33:39;;;;;;;2.90;1.30;;;27.80;89.30;;;;;;5049005;28;20046;-75
2023/07/20 10:36:06;;;;;;;4.78;1.80;;;28.00;89.00;;;;;;5045735;28;20488;-75
2023/07/20 10:38:47;;;;;;;3.30;1.42;;;27.20;88.90;;;;;;5045769;28;20052;-73
2023/07/20 10:41:21;;;;;;;5.55;1.60;;;26.50;88.60;;;;;;5052670;28;20049;-74
2023/07/20 10:43:48;;;;;;;4.63;1.43;;;26.40;90.00;;;;;;5053347;28;20088;-75
2023/07/20 10:46:14;;;;;;;3.97;1.60;;;26.10;90.00;;;;;;5052498;28;20045;-73
2023/07/20 10:49:00;;;;;;;5.60;1.65;;;25.90;90.00;;;;;;5042356;28;20128;-75
2023/07/20 10:51:26;;;;;;;;;;;26.20;90.00;;;;;;5051973;28;20056;-77
2023/07/20 10:53:53;;;;;;;4.23;1.60;;;26.50;89.70;;;;;;5052305;28;20315;-74
2023/07/20 10:56:23;;;;;;;3.65;1.63;;;26.70;90.60;;;;;;5053241;28;20787;-73
2023/07/20 10:58:49;;;;;;;2.75;1.25;;;27.00;89.60;;;;;;5051897;28;20052;-72
2023/07/20 11:01:17;;;;;;;3.70;1.27;;;26.80;88.90;;;;;;5053229;28;20084;-73
2023/07/20 11:03:50;;;;;;;2.97;1.42;;;26.90;88.40;;;;;;5051429;28;20040;-76
2023/07/20 11:06:25;;;;;;;2.75;1.40;;;27.00;88.10;;;;;;5053297;28;20055;-76
2023/07/20 11:09:14;;;;;;;3.85;1.50;;;27.20;87.30;;;;;;5049895;28;20061;-75
2023/07/20 11:11:41;;;;;;;3.88;1.60;;;26.70;87.00;;;;;;5051721;28;20049;-75
2023/07/20 11:14:21;;;;;;;2.83;1.30;;;26.50;88.20;;;;;;5049758;28;20053;-75
2023/07/20 11:16:48;;;;;;;2.78;1.13;;;26.30;86.70;;;;;;5043815;28;20124;-73
2023/07/20 11:19:25;;;;;;;5.45;1.50;;;26.80;86.80;;;;;;5041457;28;20123;-73
2023/07/20 11:21:55;;;;;;;3.90;1.58;;;27.00;87.80;;;;;;5047853;28;20037;-73
2023/07/20 11:24:22;;;;;;;3.40;1.52;;;27.40;85.70;;;;;;5039559;28;20056;-73
2023/07/20 11:26:53;;;;;;;5.28;1.80;;;27.60;85.60;;;;;;5034701;28;20061;-73
2023/07/20 11:29:22;;;;;;;3.72;1.90;;;27.70;86.50;;;;;;5040777;28;20033;-74
2023/07/20 11:31:51;;;;;;;3.92;1.08;;;28.00;85.80;;;;;;5043118;28;20045;-73
2023/07/20 11:34:18;;;;;;;2.33;1.30;;;28.20;82.50;;;;;;5043235;28;20472;-73
2023/07/20 11:36:46;;;;;;;3.10;1.30;;;28.20;81.90;;;;;;5048470;28;20080;-73
2023/07/20 11:39:13;;;;;;;3.60;1.33;;;28.10;81.60;;;;;;5036015;28;20045;-73
2023/07/20 11:41:49;;;;;;;2.92;1.40;;;28.10;82.30;;;;;;5045661;28;20038;-73
2023/07/20 11:44:26;;;;;;;2.97;1.33;;;28.00;83.30;;;;;;5050763;28;20397;-74
2023/07/20 11:47:07;;;;;;;2.70;1.60;;;28.10;82.70;;;;;;5043624;28;20044;-73
2023/07/20 11:49:42;;;;;;;4.20;1.33;;;28.20;84.50;;;;;;5036925;28;20041;-73
2023/07/20 11:52:15;;;;;;;2.80;1.20;;;28.00;82.10;;;;;;5042962;28;20133;-74
2023/07/20 11:54:42;;;;;;;3.05;1.20;;;27.80;82.70;;;;;;5035704;28;20045;-73
2023/07/20 11:57:15;;;;;;;3.03;1.10;;;27.80;80.30;;;;;;5039174;28;20057;-73
2023/07/20 12:00:01;;;;;;;2.67;1.30;;;27.80;81.50;;;;;;5045664;28;20053;-73
2023/07/20 12:02:27;;;;;;;2.30;1.05;;;27.70;81.90;;;;;;5047856;28;20137;-73
2023/07/20 12:04:57;;;;;;;2.08;1.08;;;27.70;81.00;;;;;;5046853;28;20461;-74
2023/07/20 12:07:25;;;;;;;3.22;1.30;;;27.50;78.30;;;;;;5043937;28;20049;-73
2023/07/20 12:10:07;;;;;;;3.40;1.20;;;27.30;81.50;;;;;;5044039;28;20050;-73
2023/07/20 12:12:34;;;;;;;3.92;1.30;;;27.00;82.10;;;;;;5043091;28;20460;-73
2023/07/20 12:15:33;;;;;;;3.25;1.10;;;27.30;84.80;;;;;;5036246;28;20497;-74
2023/07/20 12:18:01;;;;;;;2.95;1.30;;;27.40;81.70;;;;;;5017669;28;20069;-73
2023/07/20 12:20:29;;;;;;;2.88;1.05;;;27.20;81.10;;;;;;5047139;28;20047;-74
2023/07/20 12:23:10;;;;;;;2.80;1.10;;;27.10;83.60;;;;;;5050378;28;20167;-74
2023/07/20 12:25:44;;;;;;;2.58;1.00;;;27.40;83.10;;;;;;5050853;28;20480;-74
2023/07/20 12:28:12;;;;;;;3.95;1.17;;;27.50;83.20;;;;;;5051109;28;20071;-75
2023/07/20 12:30:38;;;;;;;3.13;1.17;;;27.80;80.90;;;;;;5048028;28;20037;-74
2023/07/20 12:33:05;;;;;;;2.50;1.20;;;27.80;83.20;;;;;;5048948;28;20059;-74
2023/07/20 12:35:31;;;;;;;3.13;1.10;;;27.90;82.80;;;;;;5043902;28;20485;-74
2023/07/20 12:37:58;;;;;;;2.92;1.20;;;27.90;82.30;;;;;;5032964;28;20072;-73
2023/07/20 12:40:24;;;;;;;4.78;1.30;;;27.90;81.50;;;;;;5044802;28;20056;-73
2023/07/20 12:42:50;;;;;;;2.63;1.10;;;27.80;80.60;;;;;;5050720;28;20045;-73
2023/07/20 12:45:15;;;;;;;2.70;1.13;;;27.80;80.30;;;;;;5052171;28;20151;-74
2023/07/20 12:47:43;;;;;;;3.15;1.20;;;27.50;79.50;;;;;;5051532;28;20047;-77
2023/07/20 12:50:12;;;;;;;2.75;1.05;;;27.20;82.30;;;;;;5050316;28;20045;-74
2023/07/20 12:52:39;;;;;;;2.92;1.20;;;27.00;80.70;;;;;;5050442;28;20040;-74